Time;durP1;ratioP1;P1;durP2;ratioP2;P2;SDS_P1;SDS_P2;PMS_P1;PMS_P2;Temp;Humidity;BMP_temperature;BMP_pressure;BME280_temperature;BME280_humidity;BME280_pressure;Samples;Min_cycle;Max_cycle;Signal;HPM_P1;HPM_P2
2022/04/09 00:00:21;;;;;;;5.00;4.50;;;;;;;;;;5014932;28;20231;-80
2022/04/09 00:02:48;;;;;;;6.00;5.17;;;;;;;;;;5014460;28;20239;-80
2022/04/09 00:05:16;;;;;;;8.90;5.53;;;;;;;;;;5014435;28;20231;-80
2022/04/09 00:07:43;;;;;;;7.33;5.03;;;;;;;;;;5014558;28;20200;-80
2022/04/09 00:10:12;;;;;;;6.97;4.77;;;;;;;;;;5013984;28;20235;-80
2022/04/09 00:12:39;;;;;;;5.73;5.10;;;;;;;;;;5014625;28;20676;-80
2022/04/09 00:15:07;;;;;;;6.43;5.17;;;;;;;;;;5013454;28;20238;-79
2022/04/09 00:17:37;;;;;;;5.40;4.90;;;;;;;;;;5014365;28;20723;-80
2022/04/09 00:20:05;;;;;;;8.20;5.63;;;;;;;;;;5014184;28;20631;-80
2022/04/09 00:22:33;;;;;;;6.30;5.60;;;;;;;;;;5014621;28;20670;-80
2022/04/09 00:25:00;;;;;;;6.37;5.47;;;;;;;;;;5014923;28;20619;-80
2022/04/09 00:27:27;;;;;;;6.07;5.23;;;;;;;;;;5014933;28;20569;-80
2022/04/09 00:29:54;;;;;;;7.20;6.20;;;;;;;;;;5014388;28;20699;-80
2022/04/09 00:32:21;;;;;;;7.93;7.07;;;;;;;;;;5014836;28;20216;-80
2022/04/09 00:34:48;;;;;;;7.90;6.80;;;;;;;;;;5014646;28;20207;-80
2022/04/09 00:37:16;;;;;;;8.57;7.10;;;;;;;;;;5014849;28;20227;-80
2022/04/09 00:39:44;;;;;;;9.47;8.27;;;;;;;;;;5015280;28;20232;-79
2022/04/09 00:42:14;;;;;;;11.40;8.50;;;;;;;;;;5015033;28;20223;-80
2022/04/09 00:44:41;;;;;;;10.83;7.50;;;;;;;;;;5015451;28;20237;-80
2022/04/09 00:47:08;;;;;;;10.13;7.80;;;;;;;;;;5014199;28;20234;-80
2022/04/09 00:49:37;;;;;;;10.97;8.57;;;;;;;;;;5014544;28;20231;-80
2022/04/09 00:52:05;;;;;;;10.97;7.73;;;;;;;;;;5015228;28;20261;-80
2022/04/09 00:54:33;;;;;;;12.57;8.20;;;;;;;;;;5014681;28;20215;-79
2022/04/09 00:57:05;;;;;;;7.83;6.67;;;;;;;;;;5015849;28;20719;-80
2022/04/09 00:59:32;;;;;;;11.30;8.33;;;;;;;;;;5015384;28;20281;-79
2022/04/09 01:02:00;;;;;;;10.37;7.90;;;;;;;;;;5012865;28;20626;-79
2022/04/09 01:04:28;;;;;;;10.77;8.53;;;;;;;;;;5027627;28;20210;-79
2022/04/09 01:06:55;;;;;;;11.93;7.90;;;;;;;;;;5015161;28;20718;-79
2022/04/09 01:09:22;;;;;;;10.07;8.20;;;;;;;;;;5029182;28;20253;-80
2022/04/09 01:11:49;;;;;;;10.10;8.00;;;;;;;;;;5034813;28;20239;-80
2022/04/09 01:14:18;;;;;;;12.67;8.43;;;;;;;;;;5023506;28;20207;-81
2022/04/09 01:16:45;;;;;;;9.30;7.37;;;;;;;;;;5016938;28;20235;-80
2022/04/09 01:19:12;;;;;;;13.07;9.37;;;;;;;;;;5022016;28;20250;-80
2022/04/09 01:21:40;;;;;;;18.17;9.43;;;;;;;;;;5022693;28;20691;-81
2022/04/09 01:24:09;;;;;;;12.30;9.37;;;;;;;;;;5023858;28;20643;-80
2022/04/09 01:26:36;;;;;;;13.23;9.67;;;;;;;;;;5035042;28;20263;-79
2022/04/09 01:29:04;;;;;;;13.30;9.17;;;;;;;;;;5042146;28;20250;-80
2022/04/09 01:31:31;;;;;;;10.67;8.23;;;;;;;;;;5050668;28;20234;-80
2022/04/09 01:33:58;;;;;;;18.90;10.73;;;;;;;;;;5041945;28;20209;-80
2022/04/09 01:36:25;;;;;;;18.33;10.63;;;;;;;;;;5040528;28;20245;-80
2022/04/09 01:38:52;;;;;;;15.53;9.57;;;;;;;;;;5040936;28;20245;-80
2022/04/09 01:41:21;;;;;;;13.30;10.07;;;;;;;;;;5039628;28;20633;-80
2022/04/09 01:43:48;;;;;;;15.00;9.40;;;;;;;;;;5040880;28;20225;-79
2022/04/09 01:46:15;;;;;;;13.33;9.90;;;;;;;;;;5038001;28;20249;-80
2022/04/09 01:48:43;;;;;;;14.50;9.87;;;;;;;;;;5036097;28;20226;-80
2022/04/09 01:51:10;;;;;;;12.67;9.10;;;;;;;;;;5035839;28;20265;-80
2022/04/09 01:53:38;;;;;;;14.27;10.37;;;;;;;;;;5037871;28;20210;-80
2022/04/09 01:56:06;;;;;;;14.80;9.63;;;;;;;;;;5037127;28;20317;-79
2022/04/09 01:58:35;;;;;;;17.23;10.73;;;;;;;;;;5035972;28;20350;-80
2022/04/09 02:01:02;;;;;;;15.90;10.70;;;;;;;;;;5036193;28;20242;-80
2022/04/09 02:03:29;;;;;;;15.50;10.93;;;;;;;;;;5036520;28;20203;-80
2022/04/09 02:05:56;;;;;;;18.10;10.63;;;;;;;;;;5036650;28;20234;-81
2022/04/09 02:08:23;;;;;;;17.70;10.93;;;;;;;;;;5040085;28;20222;-80
2022/04/09 02:10:50;;;;;;;15.60;12.00;;;;;;;;;;5040806;28;20244;-81
2022/04/09 02:13:18;;;;;;;16.97;11.37;;;;;;;;;;5040829;28;20569;-80
2022/04/09 02:15:46;;;;;;;18.83;11.63;;;;;;;;;;5039516;28;20694;-80
2022/04/09 02:18:13;;;;;;;16.60;11.10;;;;;;;;;;5040121;28;20230;-80
2022/04/09 02:20:40;;;;;;;19.57;11.77;;;;;;;;;;5040052;28;20226;-80
2022/04/09 02:23:07;;;;;;;17.77;11.93;;;;;;;;;;5040541;28;20211;-80
2022/04/09 02:25:34;;;;;;;17.73;11.60;;;;;;;;;;5039922;28;20230;-81
2022/04/09 02:28:03;;;;;;;19.60;12.53;;;;;;;;;;5039710;28;20317;-80
2022/04/09 02:30:30;;;;;;;23.33;11.83;;;;;;;;;;5039454;28;20257;-80
2022/04/09 02:32:59;;;;;;;20.20;12.30;;;;;;;;;;5041414;28;20207;-80
2022/04/09 02:35:26;;;;;;;20.93;13.40;;;;;;;;;;5039318;28;20230;-80
2022/04/09 02:37:53;;;;;;;20.87;12.27;;;;;;;;;;5040447;28;20230;-80
2022/04/09 02:40:21;;;;;;;20.97;13.03;;;;;;;;;;5039125;28;20230;-80
2022/04/09 02:42:48;;;;;;;18.97;11.47;;;;;;;;;;5040046;28;20199;-80
2022/04/09 02:45:15;;;;;;;25.27;13.37;;;;;;;;;;5039743;28;20238;-80
2022/04/09 02:47:42;;;;;;;25.13;13.20;;;;;;;;;;5038972;28;20213;-80
2022/04/09 02:50:12;;;;;;;23.83;12.90;;;;;;;;;;5039371;28;20234;-80
2022/04/09 02:52:39;;;;;;;26.80;14.03;;;;;;;;;;5039472;28;20601;-80
2022/04/09 02:55:07;;;;;;;25.07;13.00;;;;;;;;;;5045711;28;20234;-80
2022/04/09 02:57:34;;;;;;;25.30;12.97;;;;;;;;;;5039499;28;20313;-80
2022/04/09 03:00:02;;;;;;;22.43;13.27;;;;;;;;;;5038872;28;20626;-80
2022/04/09 03:02:29;;;;;;;23.73;14.07;;;;;;;;;;5039590;28;20875;-80
2022/04/09 03:04:56;;;;;;;25.53;15.57;;;;;;;;;;5038788;28;20206;-80
2022/04/09 03:07:25;;;;;;;27.80;14.53;;;;;;;;;;5040012;28;20663;-80
2022/04/09 03:09:52;;;;;;;25.33;14.70;;;;;;;;;;5038648;28;20223;-80
2022/04/09 03:12:19;;;;;;;30.67;15.70;;;;;;;;;;5040002;28;20218;-80
2022/04/09 03:14:46;;;;;;;27.87;15.13;;;;;;;;;;5037039;28;20211;-80
2022/04/09 03:17:13;;;;;;;29.43;16.30;;;;;;;;;;5037646;28;20230;-80
2022/04/09 03:19:40;;;;;;;29.97;15.60;;;;;;;;;;5038643;28;20230;-80
2022/04/09 03:22:07;;;;;;;26.40;16.37;;;;;;;;;;5038599;28;20238;-80
2022/04/09 03:24:37;;;;;;;25.80;15.73;;;;;;;;;;5038729;28;20206;-81
2022/04/09 03:27:04;;;;;;;33.93;18.80;;;;;;;;;;5037834;28;20242;-81
2022/04/09 03:29:31;;;;;;;37.03;17.87;;;;;;;;;;5038314;28;20246;-80
2022/04/09 03:31:59;;;;;;;31.73;17.77;;;;;;;;;;5038258;28;20242;-80
2022/04/09 03:34:26;;;;;;;30.40;17.07;;;;;;;;;;5037577;28;20690;-80
2022/04/09 03:36:53;;;;;;;37.23;19.43;;;;;;;;;;5034718;28;20235;-80
2022/04/09 03:39:20;;;;;;;33.77;18.70;;;;;;;;;;5034079;28;20230;-80
2022/04/09 03:41:49;;;;;;;31.40;16.90;;;;;;;;;;5033618;28;20639;-80
2022/04/09 03:44:16;;;;;;;33.13;18.23;;;;;;;;;;5033983;28;20580;-81
2022/04/09 03:46:43;;;;;;;32.47;17.87;;;;;;;;;;5033592;28;20243;-80
2022/04/09 03:49:11;;;;;;;34.43;18.60;;;;;;;;;;5034134;28;20726;-81
2022/04/09 03:51:38;;;;;;;34.63;16.57;;;;;;;;;;5034431;28;20237;-80
2022/04/09 03:54:06;;;;;;;25.50;15.77;;;;;;;;;;5034869;28;20217;-80
2022/04/09 03:56:33;;;;;;;24.70;14.43;;;;;;;;;;5034659;28;20242;-81
2022/04/09 03:59:02;;;;;;;30.90;16.30;;;;;;;;;;5035176;28;20237;-80
2022/04/09 04:01:29;;;;;;;29.57;15.63;;;;;;;;;;5035032;28;20265;-80
2022/04/09 04:03:57;;;;;;;29.87;16.43;;;;;;;;;;5035575;28;20308;-80
2022/04/09 04:06:24;;;;;;;23.53;12.83;;;;;;;;;;5035245;28;20247;-81
2022/04/09 04:08:52;;;;;;;24.97;14.80;;;;;;;;;;5035841;28;20228;-80
2022/04/09 04:11:19;;;;;;;25.43;14.03;;;;;;;;;;5035494;28;20238;-81
2022/04/09 04:13:48;;;;;;;20.77;12.33;;;;;;;;;;5036130;28;20262;-81
2022/04/09 04:16:17;;;;;;;30.27;16.17;;;;;;;;;;5035762;28;20714;-81
2022/04/09 04:18:44;;;;;;;26.33;13.13;;;;;;;;;;5036127;28;20231;-81
2022/04/09 04:21:11;;;;;;;24.57;14.80;;;;;;;;;;5036599;28;20245;-81
2022/04/09 04:23:38;;;;;;;22.67;13.70;;;;;;;;;;5037185;28;20214;-80
2022/04/09 04:26:05;;;;;;;23.53;13.53;;;;;;;;;;5035591;28;20230;-81
2022/04/09 04:28:32;;;;;;;21.03;12.77;;;;;;;;;;5036333;28;20226;-80
2022/04/09 04:30:59;;;;;;;28.13;13.13;;;;;;;;;;5035718;28;20230;-81
2022/04/09 04:33:28;;;;;;;19.57;11.07;;;;;;;;;;5036842;28;20209;-81
2022/04/09 04:35:55;;;;;;;18.43;12.80;;;;;;;;;;5035618;28;20238;-80
2022/04/09 04:38:23;;;;;;;20.63;11.97;;;;;;;;;;5036553;28;20230;-81
2022/04/09 04:40:51;;;;;;;17.90;11.37;;;;;;;;;;5035812;28;20261;-80
2022/04/09 04:43:18;;;;;;;21.63;13.03;;;;;;;;;;5036390;28;20207;-80
2022/04/09 04:45:45;;;;;;;22.07;14.20;;;;;;;;;;5037148;28;20245;-81
2022/04/09 04:48:12;;;;;;;26.07;11.83;;;;;;;;;;5049817;28;20741;-81
2022/04/09 04:50:40;;;;;;;20.33;13.63;;;;;;;;;;5040156;28;20579;-80
2022/04/09 04:53:07;;;;;;;23.03;12.77;;;;;;;;;;5041177;28;20207;-80
2022/04/09 04:55:35;;;;;;;26.10;13.13;;;;;;;;;;5039887;28;20246;-80
2022/04/09 04:58:03;;;;;;;21.40;12.60;;;;;;;;;;5040209;28;20234;-81
2022/04/09 05:00:30;;;;;;;19.93;11.90;;;;;;;;;;5040480;28;20237;-81
2022/04/09 05:02:58;;;;;;;18.93;12.17;;;;;;;;;;5040416;28;20233;-80
2022/04/09 05:05:25;;;;;;;16.10;10.23;;;;;;;;;;5040454;28;20292;-81
2022/04/09 05:07:55;;;;;;;17.30;10.10;;;;;;;;;;5042709;28;20218;-81
2022/04/09 05:10:22;;;;;;;15.03;10.30;;;;;;;;;;5042458;28;20234;-81
2022/04/09 05:12:50;;;;;;;15.70;10.13;;;;;;;;;;5043438;28;20213;-81
2022/04/09 05:15:18;;;;;;;14.17;9.33;;;;;;;;;;5043056;28;20606;-81
2022/04/09 05:17:45;;;;;;;15.30;9.30;;;;;;;;;;5043797;28;20234;-81
2022/04/09 05:20:14;;;;;;;13.20;8.87;;;;;;;;;;5043342;28;20234;-81
2022/04/09 05:22:43;;;;;;;11.67;8.03;;;;;;;;;;5046830;28;20221;-81
2022/04/09 05:25:13;;;;;;;13.93;9.00;;;;;;;;;;5058413;28;20207;-81
2022/04/09 05:27:40;;;;;;;13.43;8.07;;;;;;;;;;5058704;28;20210;-82
2022/04/09 05:30:08;;;;;;;12.80;7.50;;;;;;;;;;5041080;28;20238;-81
2022/04/09 05:32:36;;;;;;;11.73;8.27;;;;;;;;;;5041520;28;20210;-80
2022/04/09 05:35:03;;;;;;;12.93;7.70;;;;;;;;;;5039570;28;20780;-80
2022/04/09 05:37:31;;;;;;;12.17;7.70;;;;;;;;;;5039733;28;20191;-80
2022/04/09 05:39:58;;;;;;;12.73;7.17;;;;;;;;;;5039824;28;20238;-81
2022/04/09 05:42:26;;;;;;;12.93;8.40;;;;;;;;;;5039641;28;20432;-80
2022/04/09 05:44:53;;;;;;;11.13;7.23;;;;;;;;;;5039370;28;20206;-80
2022/04/09 05:47:20;;;;;;;10.00;6.83;;;;;;;;;;5039525;28;20199;-82
2022/04/09 05:49:47;;;;;;;8.53;6.97;;;;;;;;;;5038970;28;20230;-83
2022/04/09 05:52:15;;;;;;;15.37;7.23;;;;;;;;;;5039872;28;20194;-83
2022/04/09 05:54:43;;;;;;;12.93;7.20;;;;;;;;;;5038634;28;20612;-82
2022/04/09 05:57:10;;;;;;;15.07;6.73;;;;;;;;;;5037223;28;20331;-83
2022/04/09 05:59:39;;;;;;;15.27;6.83;;;;;;;;;;5033585;28;20238;-81
2022/04/09 06:02:07;;;;;;;18.40;6.77;;;;;;;;;;5002560;28;20592;-84
2022/04/09 06:04:34;;;;;;;13.30;6.40;;;;;;;;;;4993635;28;20231;-85
2022/04/09 06:07:09;;;;;;;8.50;5.57;;;;;;;;;;4998875;28;20231;-85
2022/04/09 06:09:38;;;;;;;9.17;5.30;;;;;;;;;;5012528;28;20219;-85
2022/04/09 06:12:06;;;;;;;8.73;5.23;;;;;;;;;;5011739;28;20254;-84
2022/04/09 06:14:33;;;;;;;9.67;6.10;;;;;;;;;;5013084;28;20220;-85
2022/04/09 06:17:02;;;;;;;13.03;7.27;;;;;;;;;;5012344;28;20242;-85
2022/04/09 06:19:29;;;;;;;16.03;7.13;;;;;;;;;;5012078;28;20246;-85
2022/04/09 06:21:58;;;;;;;16.70;6.73;;;;;;;;;;5012220;28;20673;-86
2022/04/09 06:24:25;;;;;;;12.17;6.20;;;;;;;;;;5008519;28;20204;-85
2022/04/09 06:26:52;;;;;;;7.07;4.60;;;;;;;;;;4992325;28;20607;-85
2022/04/09 06:29:19;;;;;;;8.70;6.00;;;;;;;;;;4992973;28;20235;-83
2022/04/09 06:31:47;;;;;;;9.40;5.67;;;;;;;;;;4992058;28;20240;-84
2022/04/09 06:34:16;;;;;;;9.07;5.13;;;;;;;;;;4993349;28;20294;-85
2022/04/09 06:36:43;;;;;;;7.87;5.40;;;;;;;;;;4992713;28;20236;-84
2022/04/09 06:39:10;;;;;;;3.57;3.27;;;;;;;;;;4992904;28;20238;-85
2022/04/09 06:41:38;;;;;;;8.43;4.97;;;;;;;;;;4992239;28;20232;-84
2022/04/09 06:44:06;;;;;;;7.00;4.57;;;;;;;;;;4992766;28;20204;-84
2022/04/09 06:46:33;;;;;;;6.40;5.03;;;;;;;;;;4992448;28;20971;-84
2022/04/09 06:49:02;;;;;;;8.37;5.30;;;;;;;;;;4992665;28;20224;-85
2022/04/09 06:51:37;;;;;;;9.33;4.43;;;;;;;;;;4992986;28;20264;-85
2022/04/09 06:54:05;;;;;;;12.10;5.60;;;;;;;;;;4995696;28;20199;-84
2022/04/09 06:56:32;;;;;;;7.60;5.20;;;;;;;;;;4995751;28;20238;-85
2022/04/09 06:59:00;;;;;;;6.83;5.33;;;;;;;;;;4995369;28;20240;-86
2022/04/09 07:01:27;;;;;;;9.37;5.07;;;;;;;;;;4995512;28;20268;-85
2022/04/09 07:03:54;;;;;;;11.90;5.57;;;;;;;;;;4996272;28;20663;-86
2022/04/09 07:06:21;;;;;;;8.90;4.87;;;;;;;;;;4995997;28;20240;-87
2022/04/09 07:08:50;;;;;;;13.70;4.90;;;;;;;;;;4996181;28;20237;-87
2022/04/09 07:11:17;;;;;;;9.00;5.60;;;;;;;;;;4995710;28;20244;-86
2022/04/09 07:13:44;;;;;;;10.13;5.50;;;;;;;;;;4996339;28;20268;-87
2022/04/09 07:16:11;;;;;;;9.57;5.30;;;;;;;;;;4995370;28;20246;-88
2022/04/09 07:18:38;;;;;;;8.67;5.80;;;;;;;;;;4995647;28;20235;-87
2022/04/09 07:21:05;;;;;;;8.20;4.73;;;;;;;;;;4995483;28;20242;-85
2022/04/09 07:23:33;;;;;;;8.20;4.83;;;;;;;;;;4996036;28;20223;-85
2022/04/09 07:26:02;;;;;;;5.50;3.43;;;;;;;;;;4995635;28;20243;-86
2022/04/09 07:28:29;;;;;;;11.63;5.10;;;;;;;;;;4996109;28;20284;-85
2022/04/09 07:30:56;;;;;;;9.87;5.03;;;;;;;;;;4995223;28;20263;-86
2022/04/09 07:33:23;;;;;;;6.53;5.07;;;;;;;;;;4995597;28;20577;-86
2022/04/09 07:35:53;;;;;;;10.67;5.00;;;;;;;;;;4995044;28;20244;-87
2022/04/09 07:38:20;;;;;;;7.10;5.13;;;;;;;;;;4996708;28;20224;-85
2022/04/09 07:40:47;;;;;;;7.53;3.90;;;;;;;;;;4998645;28;20243;-85
2022/04/09 07:43:15;;;;;;;7.23;5.00;;;;;;;;;;4996785;28;20682;-85
2022/04/09 07:45:42;;;;;;;7.47;4.37;;;;;;;;;;4995269;28;20710;-85
2022/04/09 07:48:11;;;;;;;8.07;4.77;;;;;;;;;;4994860;28;20311;-86
2022/04/09 07:50:38;;;;;;;8.93;4.90;;;;;;;;;;4994899;28;20320;-85
2022/04/09 07:53:07;;;;;;;8.03;4.67;;;;;;;;;;4995149;28;20207;-86
2022/04/09 07:55:35;;;;;;;9.83;6.30;;;;;;;;;;4995087;28;20241;-85
2022/04/09 07:58:02;;;;;;;6.97;4.53;;;;;;;;;;4995520;28;20200;-85
2022/04/09 08:00:30;;;;;;;9.13;5.00;;;;;;;;;;5011059;28;20242;-86
2022/04/09 08:02:57;;;;;;;6.13;4.70;;;;;;;;;;5048820;28;20231;-85
2022/04/09 08:05:26;;;;;;;8.27;5.47;;;;;;;;;;5034773;28;20242;-85
2022/04/09 08:07:53;;;;;;;8.70;5.77;;;;;;;;;;5033019;28;20201;-86
2022/04/09 08:10:22;;;;;;;8.37;5.37;;;;;;;;;;5033902;28;20252;-86
2022/04/09 08:12:51;;;;;;;13.47;5.87;;;;;;;;;;5034669;28;20190;-85
2022/04/09 08:15:28;;;;;;;3.50;3.00;;;;;;;;;;5003596;28;20241;-86
2022/04/09 08:17:57;;;;;;;7.80;5.30;;;;;;;;;;4994979;28;20196;-86
2022/04/09 08:20:26;;;;;;;11.40;5.10;;;;;;;;;;4994349;28;20726;-86
2022/04/09 08:22:59;;;;;;;10.33;5.27;;;;;;;;;;4994373;28;20668;-86
2022/04/09 08:25:26;;;;;;;6.33;3.23;;;;;;;;;;4994448;28;20232;-85
2022/04/09 08:27:53;;;;;;;8.17;3.83;;;;;;;;;;4994651;28;20230;-85
2022/04/09 08:30:23;;;;;;;11.20;4.63;;;;;;;;;;4993939;28;20662;-87
2022/04/09 08:32:53;;;;;;;16.10;5.73;;;;;;;;;;4994677;28;20199;-86
2022/04/09 08:35:52;;;;;;;8.77;4.90;;;;;;;;;;4994446;28;20247;-88
2022/04/09 08:38:20;;;;;;;8.00;5.23;;;;;;;;;;4994478;28;20232;-88
2022/04/09 08:40:47;;;;;;;7.50;4.27;;;;;;;;;;4994026;28;20247;-85
2022/04/09 08:43:15;;;;;;;7.83;5.40;;;;;;;;;;4994342;28;20215;-85
2022/04/09 08:45:42;;;;;;;8.37;5.13;;;;;;;;;;4993593;28;20240;-85
2022/04/09 08:48:09;;;;;;;11.00;5.27;;;;;;;;;;4994039;28;20216;-86
2022/04/09 08:50:37;;;;;;;11.77;6.77;;;;;;;;;;4993102;28;20235;-86
2022/04/09 08:53:07;;;;;;;10.37;5.90;;;;;;;;;;4994725;28;20263;-86
2022/04/09 08:55:35;;;;;;;10.40;5.43;;;;;;;;;;4993807;28;20271;-85
2022/04/09 08:58:02;;;;;;;12.43;5.50;;;;;;;;;;4994666;28;20207;-85
2022/04/09 09:00:29;;;;;;;11.07;6.17;;;;;;;;;;4993810;28;20245;-86
2022/04/09 09:03:10;;;;;;;10.10;5.43;;;;;;;;;;4994199;28;20216;-86
2022/04/09 09:05:38;;;;;;;6.20;4.00;;;;;;;;;;4993872;28;20613;-86
2022/04/09 09:08:06;;;;;;;8.40;5.70;;;;;;;;;;4994299;28;20231;-86
2022/04/09 09:10:35;;;;;;;9.80;5.93;;;;;;;;;;4993402;28;20716;-86
2022/04/09 09:13:05;;;;;;;6.00;4.83;;;;;;;;;;4994335;28;20210;-85
2022/04/09 09:15:32;;;;;;;7.00;4.33;;;;;;;;;;4993162;28;20231;-86
2022/04/09 09:18:00;;;;;;;7.37;5.17;;;;;;;;;;4994302;28;20208;-86
2022/04/09 09:20:27;;;;;;;7.77;4.73;;;;;;;;;;4993717;28;20243;-86
2022/04/09 09:22:56;;;;;;;8.77;4.93;;;;;;;;;;4994312;28;20216;-87
2022/04/09 09:25:23;;;;;;;10.30;5.90;;;;;;;;;;4993360;28;20579;-85
2022/04/09 09:27:58;;;;;;;11.53;6.00;;;;;;;;;;4994123;28;20753;-86
2022/04/09 09:30:25;;;;;;;13.90;5.53;;;;;;;;;;5001785;28;20589;-86
2022/04/09 09:33:08;;;;;;;11.77;6.07;;;;;;;;;;5016902;28;20203;-86
2022/04/09 09:35:48;;;;;;;9.80;4.50;;;;;;;;;;5013545;28;20239;-85
2022/04/09 09:38:18;;;;;;;7.90;5.20;;;;;;;;;;5013861;28;20254;-85
2022/04/09 09:40:47;;;;;;;7.33;4.27;;;;;;;;;;5014168;28;20250;-85
2022/04/09 09:43:15;;;;;;;9.03;4.70;;;;;;;;;;5014079;28;20207;-85
2022/04/09 09:45:43;;;;;;;6.30;3.73;;;;;;;;;;5013406;28;20728;-83
2022/04/09 09:48:24;;;;;;;11.63;5.27;;;;;;;;;;5013281;28;20731;-85
2022/04/09 09:50:52;;;;;;;11.73;5.33;;;;;;;;;;5013345;28;20238;-85
2022/04/09 09:53:31;;;;;;;9.13;4.27;;;;;;;;;;5014699;28;20566;-85
2022/04/09 09:55:59;;;;;;;8.50;3.97;;;;;;;;;;5013908;28;20241;-84
2022/04/09 09:58:28;;;;;;;7.60;2.80;;;;;;;;;;5014773;28;20626;-85
2022/04/09 10:00:56;;;;;;;8.10;3.17;;;;;;;;;;5014435;28;20297;-84
2022/04/09 10:03:23;;;;;;;5.00;3.47;;;;;;;;;;5013922;28;20211;-84
2022/04/09 10:05:51;;;;;;;6.83;3.07;;;;;;;;;;5012727;28;20231;-83
2022/04/09 10:08:20;;;;;;;5.00;3.13;;;;;;;;;;5014243;28;20237;-85
2022/04/09 10:10:50;;;;;;;8.27;3.60;;;;;;;;;;5013639;28;20242;-84
2022/04/09 10:13:20;;;;;;;8.07;3.87;;;;;;;;;;5014016;28;20214;-85
2022/04/09 10:15:50;;;;;;;9.23;3.60;;;;;;;;;;5014012;28;20235;-85
2022/04/09 10:18:21;;;;;;;8.00;2.77;;;;;;;;;;5013516;28;20231;-87
2022/04/09 10:20:50;;;;;;;11.03;4.17;;;;;;;;;;5012410;28;20777;-84
2022/04/09 10:23:17;;;;;;;6.23;3.40;;;;;;;;;;5013834;28;20207;-86
2022/04/09 10:25:46;;;;;;;7.83;3.13;;;;;;;;;;5012622;28;20231;-85
2022/04/09 10:28:29;;;;;;;12.30;3.63;;;;;;;;;;5015308;28;20259;-85
2022/04/09 10:30:58;;;;;;;11.20;3.47;;;;;;;;;;5016788;28;20235;-85
2022/04/09 10:33:27;;;;;;;7.03;3.80;;;;;;;;;;5016724;28;20664;-84
2022/04/09 10:36:00;;;;;;;4.23;3.07;;;;;;;;;;5016710;28;20239;-86
2022/04/09 10:38:27;;;;;;;9.60;2.97;;;;;;;;;;5016184;28;20255;-86
2022/04/09 10:41:12;;;;;;;6.83;2.70;;;;;;;;;;5016093;28;20227;-85
2022/04/09 10:43:51;;;;;;;3.93;2.40;;;;;;;;;;5017553;28;20214;-86
2022/04/09 10:46:21;;;;;;;5.50;2.53;;;;;;;;;;5011979;28;20266;-85
2022/04/09 10:48:49;;;;;;;8.53;3.10;;;;;;;;;;4998245;28;20783;-87
2022/04/09 10:51:18;;;;;;;9.90;2.80;;;;;;;;;;4997122;28;20611;-86
2022/04/09 10:53:45;;;;;;;7.83;2.87;;;;;;;;;;4996803;28;20212;-87
2022/04/09 10:56:24;;;;;;;7.23;2.93;;;;;;;;;;4995949;28;21099;-88
2022/04/09 10:59:08;;;;;;;7.57;3.23;;;;;;;;;;4996608;28;20232;-86
2022/04/09 11:01:52;;;;;;;7.77;3.03;;;;;;;;;;4996499;28;20721;-86
2022/04/09 11:04:38;;;;;;;1.90;1.80;;;;;;;;;;4997423;28;20719;-86
2022/04/09 11:07:06;;;;;;;7.37;2.53;;;;;;;;;;4996843;28;20239;-85
2022/04/09 11:09:43;;;;;;;6.93;2.40;;;;;;;;;;4997167;28;20589;-86
2022/04/09 11:12:11;;;;;;;8.60;2.80;;;;;;;;;;4996682;28;20231;-87
2022/04/09 11:14:47;;;;;;;10.40;2.70;;;;;;;;;;4997308;28;20196;-86
2022/04/09 11:17:35;;;;;;;7.03;2.73;;;;;;;;;;4997121;28;20226;-87
2022/04/09 11:20:09;;;;;;;7.23;2.90;;;;;;;;;;4992664;28;20236;-86
2022/04/09 11:22:37;;;;;;;5.17;2.17;;;;;;;;;;5009489;28;20298;-87
2022/04/09 11:25:04;;;;;;;6.93;2.50;;;;;;;;;;4996167;28;20250;-87
2022/04/09 11:27:32;;;;;;;6.30;2.60;;;;;;;;;;4997166;28;20208;-86
2022/04/09 11:29:59;;;;;;;4.57;2.17;;;;;;;;;;4997039;28;20314;-84
2022/04/09 11:32:27;;;;;;;7.27;2.30;;;;;;;;;;4996364;28;20262;-84
2022/04/09 11:34:57;;;;;;;5.53;2.37;;;;;;;;;;4995680;28;20254;-85
2022/04/09 11:37:29;;;;;;;8.20;2.70;;;;;;;;;;5014058;28;20204;-85
2022/04/09 11:39:57;;;;;;;9.53;2.93;;;;;;;;;;5014186;28;20326;-85
2022/04/09 11:42:24;;;;;;;7.17;2.70;;;;;;;;;;5015705;28;20549;-84
2022/04/09 11:44:51;;;;;;;5.23;2.33;;;;;;;;;;5022611;28;20207;-84
2022/04/09 11:47:19;;;;;;;4.57;1.73;;;;;;;;;;5017600;28;20211;-82
2022/04/09 11:49:47;;;;;;;5.53;1.70;;;;;;;;;;5014788;28;20234;-83
2022/04/09 11:52:14;;;;;;;2.53;1.50;;;;;;;;;;5014698;28;20203;-83
2022/04/09 11:54:43;;;;;;;2.57;1.50;;;;;;;;;;5014362;28;20207;-84
2022/04/09 11:57:13;;;;;;;3.33;1.60;;;;;;;;;;5014649;28;20207;-84
2022/04/09 11:59:41;;;;;;;3.50;1.70;;;;;;;;;;5014497;28;20237;-85
2022/04/09 12:02:22;;;;;;;2.20;1.60;;;;;;;;;;5014021;28;20225;-85
2022/04/09 12:04:49;;;;;;;6.03;2.10;;;;;;;;;;5013936;28;20214;-85
2022/04/09 12:07:16;;;;;;;1.77;1.33;;;;;;;;;;5015006;28;20207;-84
2022/04/09 12:09:45;;;;;;;1.20;1.20;;;;;;;;;;5013534;28;20731;-85
2022/04/09 12:12:12;;;;;;;2.63;1.10;;;;;;;;;;5013870;28;20214;-85
2022/04/09 12:14:41;;;;;;;1.20;1.10;;;;;;;;;;5014393;28;20585;-84
2022/04/09 12:17:12;;;;;;;1.37;1.13;;;;;;;;;;5014052;28;20626;-86
2022/04/09 12:19:42;;;;;;;2.37;1.50;;;;;;;;;;5014016;28;20309;-86
2022/04/09 12:22:13;;;;;;;2.73;1.33;;;;;;;;;;5013883;28;20238;-86
2022/04/09 12:24:52;;;;;;;1.30;1.20;;;;;;;;;;5014214;28;20211;-86
2022/04/09 12:27:20;;;;;;;1.93;1.70;;;;;;;;;;5014777;28;20223;-87
2022/04/09 12:29:48;;;;;;;1.47;1.27;;;;;;;;;;5013809;28;20250;-86
2022/04/09 12:32:15;;;;;;;2.40;1.53;;;;;;;;;;5014292;28;20254;-86
2022/04/09 12:34:52;;;;;;;6.03;1.57;;;;;;;;;;5020027;28;20207;-87
2022/04/09 12:37:20;;;;;;;3.27;1.50;;;;;;;;;;5018983;28;20573;-86
2022/04/09 12:39:47;;;;;;;3.07;1.77;;;;;;;;;;5014933;28;20227;-86
2022/04/09 12:42:15;;;;;;;3.03;2.20;;;;;;;;;;5020935;28;20199;-86
2022/04/09 12:44:44;;;;;;;2.83;1.87;;;;;;;;;;5013416;28;20285;-87
2022/04/09 12:47:12;;;;;;;5.23;1.60;;;;;;;;;;5029066;28;20194;-85
2022/04/09 12:49:40;;;;;;;3.07;1.57;;;;;;;;;;5033362;28;20226;-86
2022/04/09 12:52:08;;;;;;;1.83;1.40;;;;;;;;;;5032112;28;20214;-85
2022/04/09 12:54:35;;;;;;;1.87;1.50;;;;;;;;;;5033474;28;20203;-86
2022/04/09 12:57:06;;;;;;;4.23;1.80;;;;;;;;;;5032472;28;20234;-86
2022/04/09 12:59:35;;;;;;;2.27;1.47;;;;;;;;;;5032493;28;21012;-85
2022/04/09 13:02:02;;;;;;;4.20;2.20;;;;;;;;;;5034210;28;20243;-86
2022/04/09 13:04:30;;;;;;;6.23;1.73;;;;;;;;;;5036953;28;20202;-86
2022/04/09 13:06:57;;;;;;;3.30;1.67;;;;;;;;;;5037739;28;20236;-89
2022/04/09 13:09:25;;;;;;;6.33;1.40;;;;;;;;;;5035971;28;20226;-85
2022/04/09 13:11:54;;;;;;;1.50;1.33;;;;;;;;;;5032879;28;20231;-87
2022/04/09 13:14:21;;;;;;;1.27;1.23;;;;;;;;;;5034279;28;20212;-89
2022/04/09 13:16:51;;;;;;;4.13;1.57;;;;;;;;;;5033377;28;20242;-87
2022/04/09 13:19:18;;;;;;;1.43;1.33;;;;;;;;;;5035821;28;20272;-88
2022/04/09 13:21:45;;;;;;;2.20;1.53;;;;;;;;;;5032799;28;20238;-86
2022/04/09 13:24:27;;;;;;;1.30;1.30;;;;;;;;;;5035226;28;20199;-87
2022/04/09 13:26:55;;;;;;;2.83;1.50;;;;;;;;;;5034987;28;20238;-87
2022/04/09 13:29:22;;;;;;;1.30;1.20;;;;;;;;;;5036363;28;20226;-86
2022/04/09 13:31:50;;;;;;;1.80;1.30;;;;;;;;;;5035328;28;20234;-87
2022/04/09 13:34:18;;;;;;;2.03;1.57;;;;;;;;;;5037061;28;20218;-88
2022/04/09 13:36:45;;;;;;;3.30;1.23;;;;;;;;;;5033167;28;20238;-87
2022/04/09 13:39:16;;;;;;;2.70;1.70;;;;;;;;;;5035112;28;20237;-86
2022/04/09 13:41:43;;;;;;;1.80;1.27;;;;;;;;;;5032688;28;20242;-87
2022/04/09 13:44:11;;;;;;;2.13;1.47;;;;;;;;;;5034087;28;20219;-89
2022/04/09 13:46:39;;;;;;;1.47;1.37;;;;;;;;;;5033183;28;20734;-86
2022/04/09 13:49:08;;;;;;;4.40;1.60;;;;;;;;;;5032288;28;20235;-87
2022/04/09 13:51:35;;;;;;;2.43;1.60;;;;;;;;;;5036015;28;20230;-87
2022/04/09 13:54:02;;;;;;;3.07;1.83;;;;;;;;;;5041342;28;20214;-87
2022/04/09 13:56:38;;;;;;;2.17;1.20;;;;;;;;;;5040622;28;20237;-87
2022/04/09 13:59:05;;;;;;;4.10;1.33;;;;;;;;;;5043540;28;20230;-88
2022/04/09 14:01:32;;;;;;;1.97;1.33;;;;;;;;;;5040341;28;20234;-88
2022/04/09 14:03:59;;;;;;;4.47;1.93;;;;;;;;;;5043248;28;20274;-88
2022/04/09 14:06:37;;;;;;;3.93;1.90;;;;;;;;;;5043458;28;20234;-88
2022/04/09 14:09:04;;;;;;;6.03;2.40;;;;;;;;;;5048511;28;20305;-87
2022/04/09 14:11:32;;;;;;;3.47;1.80;;;;;;;;;;5038862;28;20230;-86
2022/04/09 14:14:00;;;;;;;4.50;1.80;;;;;;;;;;5037431;28;20625;-82
2022/04/09 14:16:27;;;;;;;2.07;1.70;;;;;;;;;;5036109;28;20234;-82
2022/04/09 14:18:54;;;;;;;3.20;1.97;;;;;;;;;;5035896;28;20348;-82
2022/04/09 14:21:22;;;;;;;3.47;1.60;;;;;;;;;;5035100;28;20234;-82
2022/04/09 14:23:50;;;;;;;2.33;1.80;;;;;;;;;;5035749;28;20226;-82
2022/04/09 14:26:17;;;;;;;5.07;2.33;;;;;;;;;;5035597;28;20269;-84
2022/04/09 14:28:45;;;;;;;6.13;2.50;;;;;;;;;;5035864;28;20257;-84
2022/04/09 14:31:12;;;;;;;6.20;2.50;;;;;;;;;;5035918;28;20579;-84
2022/04/09 14:33:39;;;;;;;5.13;2.60;;;;;;;;;;5036632;28;20199;-83
2022/04/09 14:36:07;;;;;;;6.60;2.17;;;;;;;;;;5037567;28;20239;-85
2022/04/09 14:38:34;;;;;;;5.27;2.30;;;;;;;;;;5037197;28;20329;-84
2022/04/09 14:41:03;;;;;;;3.20;2.23;;;;;;;;;;5050348;28;20234;-83